createdAt,value
2022-08-17T00:01:30.360Z,9.50
2022-08-17T00:04:26.541Z,10.90
2022-08-17T00:07:13.307Z,10.27
2022-08-17T00:10:01.515Z,10.67
2022-08-17T00:12:48.337Z,10.70
2022-08-17T00:15:35.046Z,10.23
2022-08-17T00:19:01.627Z,10.83
2022-08-17T00:21:59.923Z,10.13
2022-08-17T00:24:36.062Z,10.30
2022-08-17T00:27:24.175Z,10.70
2022-08-17T00:30:14.333Z,10.67
2022-08-17T00:33:13.956Z,11.03
2022-08-17T00:36:06.061Z,10.83
2022-08-17T00:38:52.969Z,10.73
2022-08-17T00:41:42.376Z,10.13
2022-08-17T00:44:31.286Z,11.13
2022-08-17T00:47:18.135Z,9.67
2022-08-17T00:50:06.365Z,10.20
2022-08-17T00:52:57.222Z,9.90
2022-08-17T00:55:43.932Z,11.33
2022-08-17T00:58:36.666Z,10.53
2022-08-17T01:01:26.249Z,10.33
2022-08-17T01:04:14.320Z,10.87
2022-08-17T01:07:03.012Z,10.13
2022-08-17T01:09:50.046Z,10.37
2022-08-17T01:12:38.185Z,10.93
2022-08-17T01:15:25.074Z,10.27
2022-08-17T01:18:14.816Z,10.13
2022-08-17T01:21:08.060Z,9.77
2022-08-17T01:23:57.073Z,10.20
2022-08-17T01:26:47.228Z,10.40
2022-08-17T01:29:38.040Z,10.57
2022-08-17T01:32:25.123Z,11.63
2022-08-17T01:35:11.789Z,10.33
2022-08-17T01:37:58.630Z,10.33
2022-08-17T01:40:50.622Z,10.87
2022-08-17T01:43:56.918Z,11.50
2022-08-17T01:46:43.883Z,10.77
2022-08-17T01:49:30.612Z,11.20
2022-08-17T01:52:19.165Z,10.67
2022-08-17T01:55:07.710Z,11.00
2022-08-17T01:57:56.131Z,11.00
2022-08-17T02:00:59.991Z,10.63
2022-08-17T02:03:56.267Z,10.70
2022-08-17T02:06:54.053Z,10.80
2022-08-17T02:09:41.201Z,10.47
2022-08-17T02:12:38.397Z,9.70
2022-08-17T02:15:28.721Z,10.47
2022-08-17T02:18:16.324Z,10.00
2022-08-17T02:21:03.210Z,9.37
2022-08-17T02:23:51.341Z,9.37
2022-08-17T02:26:38.309Z,9.40
2022-08-17T02:29:25.081Z,10.03
2022-08-17T02:32:20.913Z,10.07
2022-08-17T02:35:15.711Z,9.77
2022-08-17T02:38:06.888Z,9.43
2022-08-17T02:40:53.649Z,10.40
2022-08-17T02:43:40.962Z,10.43
2022-08-17T02:46:28.426Z,10.37
2022-08-17T02:49:16.442Z,12.13
2022-08-17T02:52:04.875Z,10.93
2022-08-17T02:54:51.807Z,11.87
2022-08-17T02:57:38.808Z,11.27
2022-08-17T03:00:29.377Z,12.07
2022-08-17T03:03:19.652Z,11.60
2022-08-17T03:06:09.164Z,11.17
2022-08-17T03:08:55.972Z,11.70
2022-08-17T03:11:42.694Z,11.30
2022-08-17T03:14:29.255Z,11.03
2022-08-17T03:17:17.493Z,11.20
2022-08-17T03:20:05.415Z,11.80
2022-08-17T03:23:01.751Z,12.03
2022-08-17T03:25:49.896Z,12.17
2022-08-17T03:28:40.667Z,11.83
2022-08-17T03:31:27.604Z,12.20
2022-08-17T03:34:14.711Z,12.40
2022-08-17T03:37:01.342Z,11.70
2022-08-17T03:39:49.412Z,11.97
2022-08-17T03:42:38.259Z,12.77
2022-08-17T03:45:40.510Z,12.77
2022-08-17T03:48:54.818Z,11.73
2022-08-17T03:51:58.873Z,11.20
2022-08-17T03:55:12.526Z,12.83
2022-08-17T03:58:00.478Z,12.50
2022-08-17T04:00:47.474Z,12.67
2022-08-17T04:03:34.591Z,13.63
2022-08-17T04:06:21.097Z,12.63
2022-08-17T04:09:08.392Z,13.10
2022-08-17T04:11:55.589Z,13.00
2022-08-17T04:14:53.223Z,11.93
2022-08-17T04:17:41.465Z,11.80
2022-08-17T04:20:28.383Z,12.23
2022-08-17T04:23:17.909Z,11.40
2022-08-17T04:26:05.317Z,11.20
2022-08-17T04:28:52.141Z,11.93
2022-08-17T04:31:40.238Z,11.17
2022-08-17T04:34:27.055Z,11.27
2022-08-17T04:37:13.813Z,11.00
2022-08-17T04:40:14.472Z,11.30
2022-08-17T04:43:06.149Z,10.33
2022-08-17T04:45:56.658Z,10.53
2022-08-17T04:48:47.294Z,10.67
2022-08-17T04:51:35.998Z,9.10
2022-08-17T04:54:23.047Z,9.40
2022-08-17T04:57:09.670Z,10.20
2022-08-17T04:59:56.451Z,9.27
2022-08-17T05:02:49.880Z,10.00
2022-08-17T05:05:43.225Z,10.07
2022-08-17T05:08:30.232Z,9.37
2022-08-17T05:11:16.990Z,9.50
2022-08-17T05:14:04.621Z,9.47
2022-08-17T05:16:51.283Z,8.97
2022-08-17T05:19:38.158Z,9.27
2022-08-17T05:22:27.218Z,9.70
2022-08-17T05:25:14.567Z,10.17
2022-08-17T05:28:02.203Z,10.03
2022-08-17T05:30:50.213Z,10.33
2022-08-17T05:33:42.667Z,10.27
2022-08-17T05:36:42.691Z,9.83
2022-08-17T05:39:32.537Z,9.97
2022-08-17T05:42:20.092Z,10.10
2022-08-17T05:45:07.766Z,10.40
2022-08-17T05:47:54.385Z,10.47
2022-08-17T05:50:50.715Z,9.50
2022-08-17T05:53:44.609Z,11.50
2022-08-17T05:56:48.823Z,11.87
2022-08-17T05:59:45.778Z,11.27
2022-08-17T06:02:50.166Z,11.63
2022-08-17T06:05:49.676Z,11.07
2022-08-17T06:08:46.253Z,12.07
2022-08-17T06:11:40.535Z,11.03
2022-08-17T06:14:48.344Z,10.90
2022-08-17T06:17:35.810Z,11.77
2022-08-17T06:20:22.633Z,12.07
2022-08-17T06:23:14.566Z,10.97
2022-08-17T06:26:05.419Z,11.70
2022-08-17T06:28:56.169Z,11.43
2022-08-17T06:31:44.690Z,11.03
2022-08-17T06:34:35.667Z,11.63
2022-08-17T06:37:52.107Z,11.90
2022-08-17T06:40:58.242Z,11.03
2022-08-17T06:44:01.927Z,11.07
2022-08-17T06:46:52.361Z,10.23
2022-08-17T06:49:50.545Z,10.20
2022-08-17T06:52:49.913Z,11.07
2022-08-17T06:55:45.312Z,9.53
2022-08-17T06:58:33.421Z,10.07
2022-08-17T07:01:31.038Z,9.37
2022-08-17T07:04:22.559Z,9.37
2022-08-17T07:07:26.152Z,9.27
2022-08-17T07:10:14.791Z,8.93
2022-08-17T07:13:26.619Z,8.70
2022-08-17T07:16:19.594Z,9.17
2022-08-17T07:19:11.050Z,9.50
2022-08-17T07:22:08.030Z,8.77
2022-08-17T07:24:58.603Z,9.53
2022-08-17T07:27:51.180Z,8.90
2022-08-17T07:30:47.340Z,8.87
2022-08-17T07:33:38.320Z,8.43
2022-08-17T07:36:33.779Z,9.57
2022-08-17T07:39:28.005Z,8.60
2022-08-17T07:42:14.946Z,8.57
2022-08-17T07:45:24.117Z,8.50
2022-08-17T07:48:21.580Z,7.30
2022-08-17T07:51:19.328Z,7.93
2022-08-17T07:54:25.473Z,6.97
2022-08-17T07:57:30.795Z,7.87
2022-08-17T08:00:31.651Z,7.83
2022-08-17T08:03:27.325Z,8.33
2022-08-17T08:06:21.807Z,7.40
2022-08-17T08:09:09.305Z,7.67
2022-08-17T08:11:57.489Z,6.90
2022-08-17T08:14:54.656Z,6.60
2022-08-17T08:17:52.932Z,7.10
2022-08-17T08:20:53.474Z,6.40
2022-08-17T08:23:47.706Z,6.87
2022-08-17T08:26:42.399Z,6.80
2022-08-17T08:29:44.225Z,6.60
2022-08-17T08:32:50.926Z,6.27
2022-08-17T08:35:44.540Z,6.20
2022-08-17T08:38:47.479Z,6.33
2022-08-17T08:41:44.922Z,6.17
2022-08-17T08:45:00.029Z,6.23
2022-08-17T08:48:05.886Z,5.47
2022-08-17T08:51:01.149Z,6.23
2022-08-17T08:53:58.971Z,6.27
2022-08-17T08:57:21.462Z,5.57
2022-08-17T09:00:08.820Z,5.80
2022-08-17T09:03:52.757Z,5.33
2022-08-17T09:07:09.351Z,5.23
2022-08-17T09:10:10.410Z,5.20
2022-08-17T09:13:10.184Z,5.77
2022-08-17T09:16:02.238Z,5.27
2022-08-17T09:19:02.231Z,5.30
2022-08-17T09:21:55.010Z,5.07
2022-08-17T09:24:47.825Z,5.00
2022-08-17T09:27:39.425Z,5.73
2022-08-17T09:30:29.386Z,4.90
2022-08-17T09:33:26.258Z,5.03
2022-08-17T09:36:21.842Z,4.97
2022-08-17T09:39:14.590Z,5.03
2022-08-17T09:42:15.500Z,4.57
2022-08-17T09:45:17.351Z,4.67
2022-08-17T09:48:13.157Z,4.90
2022-08-17T09:51:08.051Z,4.77
2022-08-17T09:54:21.071Z,4.37
2022-08-17T09:57:30.226Z,4.57
2022-08-17T10:00:25.239Z,4.90
2022-08-17T10:03:38.270Z,4.30
2022-08-17T10:06:31.443Z,4.50
2022-08-17T10:09:28.730Z,4.60
2022-08-17T10:12:30.095Z,4.50
2022-08-17T10:15:37.693Z,4.37
2022-08-17T10:18:37.815Z,4.50
2022-08-17T10:21:44.439Z,4.37
2022-08-17T10:25:21.618Z,4.73
2022-08-17T10:28:03.425Z,4.60
2022-08-17T10:31:10.407Z,4.50
2022-08-17T10:34:38.886Z,4.60
2022-08-17T10:38:06.743Z,5.00
2022-08-17T10:40:57.365Z,4.23
2022-08-17T10:44:38.353Z,4.57
2022-08-17T10:47:12.875Z,4.83
2022-08-17T10:50:34.457Z,4.50
2022-08-17T10:53:54.502Z,4.63
2022-08-17T10:56:45.077Z,4.40
2022-08-17T10:59:53.192Z,4.53
2022-08-17T11:02:49.577Z,4.00
2022-08-17T11:05:58.925Z,4.40
2022-08-17T11:09:27.961Z,3.77
2022-08-17T11:12:27.963Z,4.90
2022-08-17T11:15:25.567Z,4.50
2022-08-17T11:18:46.814Z,4.60
2022-08-17T11:22:08.212Z,4.50
2022-08-17T11:24:58.602Z,4.40
2022-08-17T11:27:47.256Z,4.40
2022-08-17T11:30:52.293Z,4.30
2022-08-17T11:33:58.979Z,4.43
2022-08-17T11:37:27.419Z,4.27
2022-08-17T11:40:43.242Z,4.37
2022-08-17T11:43:56.922Z,4.33
2022-08-17T11:47:14.813Z,4.77
2022-08-17T11:50:36.995Z,4.43
2022-08-17T11:54:21.538Z,4.40
2022-08-17T11:58:01.825Z,4.40
2022-08-17T12:00:57.769Z,4.97
2022-08-17T12:03:54.024Z,4.80
2022-08-17T12:06:47.947Z,4.63
2022-08-17T12:09:39.951Z,5.03
2022-08-17T12:12:31.464Z,5.10
2022-08-17T12:15:20.760Z,4.23
2022-08-17T12:18:08.875Z,4.43
2022-08-17T12:21:25.371Z,4.03
2022-08-17T12:24:24.127Z,4.80
2022-08-17T12:27:13.136Z,4.67
2022-08-17T12:30:00.493Z,4.80
2022-08-17T12:32:48.591Z,4.47
2022-08-17T12:35:39.040Z,4.77
2022-08-17T12:38:32.745Z,4.53
2022-08-17T12:41:34.241Z,4.67
2022-08-17T12:44:23.394Z,4.70
2022-08-17T12:47:20.967Z,4.80
2022-08-17T12:50:29.516Z,4.43
2022-08-17T12:53:24.870Z,4.37
2022-08-17T12:56:14.257Z,4.70
2022-08-17T12:59:02.421Z,4.80
2022-08-17T13:01:49.504Z,5.00
2022-08-17T13:04:56.179Z,4.77
2022-08-17T13:07:43.789Z,5.00
2022-08-17T13:10:33.838Z,4.60
2022-08-17T13:13:28.044Z,4.67
2022-08-17T13:16:20.262Z,4.33
2022-08-17T13:19:10.198Z,4.80
2022-08-17T13:22:00.034Z,4.10
2022-08-17T13:24:54.580Z,4.30
2022-08-17T13:27:44.155Z,4.53
2022-08-17T13:30:33.806Z,4.27
2022-08-17T13:33:43.282Z,5.10
2022-08-17T13:36:33.784Z,4.70
2022-08-17T13:39:23.891Z,4.40
2022-08-17T13:42:32.866Z,4.57
2022-08-17T13:45:44.964Z,4.43
2022-08-17T13:48:37.473Z,4.40
2022-08-17T13:51:33.879Z,4.13
2022-08-17T13:54:27.157Z,4.40
2022-08-17T13:57:22.853Z,4.70
2022-08-17T14:00:13.324Z,4.40
2022-08-17T14:03:03.651Z,4.83
2022-08-17T14:05:51.752Z,4.70
2022-08-17T14:08:38.369Z,4.60
2022-08-17T14:11:25.690Z,4.60
2022-08-17T14:14:13.321Z,4.17
2022-08-17T14:16:59.848Z,4.53
2022-08-17T14:19:48.202Z,4.87
2022-08-17T14:22:38.210Z,4.43
2022-08-17T14:25:28.557Z,4.97
2022-08-17T14:28:15.348Z,4.43
2022-08-17T14:31:03.067Z,4.90
2022-08-17T14:33:49.615Z,5.00
2022-08-17T14:36:40.991Z,5.10
2022-08-17T14:39:34.666Z,5.27
2022-08-17T14:42:24.576Z,5.20
2022-08-17T14:45:32.075Z,5.00
2022-08-17T14:48:19.756Z,5.03
2022-08-17T14:51:06.874Z,4.83
2022-08-17T14:53:55.032Z,5.20
2022-08-17T14:56:41.587Z,4.83
2022-08-17T14:59:32.613Z,4.87
2022-08-17T15:02:19.811Z,4.80
2022-08-17T15:05:07.680Z,5.07
2022-08-17T15:07:55.883Z,4.87
2022-08-17T15:10:44.864Z,4.80
2022-08-17T15:13:32.042Z,4.90
2022-08-17T15:16:20.158Z,5.03
2022-08-17T15:19:07.978Z,4.73
2022-08-17T15:21:54.939Z,4.83
2022-08-17T15:24:41.603Z,4.63
2022-08-17T15:27:32.563Z,5.23
2022-08-17T15:30:19.980Z,4.80
2022-08-17T15:33:06.683Z,4.70
2022-08-17T15:35:54.245Z,4.63
2022-08-17T15:38:41.151Z,4.77
2022-08-17T15:41:31.818Z,5.00
2022-08-17T15:44:19.800Z,4.60
2022-08-17T15:47:07.010Z,4.83
2022-08-17T15:49:57.941Z,5.27
2022-08-17T15:52:47.622Z,5.07
2022-08-17T15:55:34.790Z,4.80
2022-08-17T15:58:21.240Z,4.63
2022-08-17T16:03:01.563Z,5.23
2022-08-17T16:04:43.999Z,5.03
2022-08-17T16:07:32.510Z,5.10
2022-08-17T16:10:19.771Z,4.90
2022-08-17T16:13:18.325Z,5.10
2022-08-17T16:16:08.359Z,5.07
2022-08-17T16:18:59.222Z,4.67
2022-08-17T16:21:46.113Z,4.63
2022-08-17T16:24:33.406Z,4.63
2022-08-17T16:27:21.319Z,5.27
2022-08-17T16:30:16.470Z,5.20
2022-08-17T16:33:05.808Z,5.67
2022-08-17T16:35:55.158Z,4.90
2022-08-17T16:38:42.476Z,5.07
2022-08-17T16:41:45.094Z,4.90
2022-08-17T16:44:33.457Z,4.83
2022-08-17T16:47:20.653Z,5.40
2022-08-17T16:50:09.211Z,4.63
2022-08-17T16:53:06.714Z,4.70
2022-08-17T16:55:53.496Z,5.40
2022-08-17T16:58:40.225Z,4.77
2022-08-17T17:01:28.742Z,5.47
2022-08-17T17:04:18.679Z,5.17
2022-08-17T17:07:21.074Z,5.37
2022-08-17T17:10:13.706Z,5.00
2022-08-17T17:13:03.798Z,5.33
2022-08-17T17:15:55.683Z,5.90
2022-08-17T17:18:52.421Z,5.23
2022-08-17T17:21:47.105Z,5.60
2022-08-17T17:24:45.911Z,5.73
2022-08-17T17:27:47.393Z,5.10
2022-08-17T17:30:41.012Z,5.37
2022-08-17T17:33:34.690Z,4.93
2022-08-17T17:36:27.226Z,5.93
2022-08-17T17:39:18.463Z,5.10
2022-08-17T17:42:09.859Z,5.23
2022-08-17T17:45:04.606Z,5.53
2022-08-17T17:47:51.584Z,5.40
2022-08-17T17:51:12.027Z,5.60
2022-08-17T17:54:07.687Z,5.30
2022-08-17T17:57:03.248Z,5.53
2022-08-17T17:59:57.705Z,5.33
2022-08-17T18:03:06.033Z,5.33
2022-08-17T18:06:12.733Z,5.37
2022-08-17T18:09:10.331Z,5.73
2022-08-17T18:12:13.957Z,6.10
2022-08-17T18:15:22.880Z,5.97
2022-08-17T18:18:37.775Z,5.07
2022-08-17T18:21:30.027Z,5.37
2022-08-17T18:24:30.948Z,5.43
2022-08-17T18:27:24.912Z,5.50
2022-08-17T18:30:27.359Z,5.77
2022-08-17T18:33:26.902Z,5.57
2022-08-17T18:36:14.170Z,5.57
2022-08-17T18:39:12.273Z,6.23
2022-08-17T18:42:00.171Z,5.93
2022-08-17T18:44:49.600Z,5.53
2022-08-17T18:47:54.726Z,5.20
2022-08-17T18:50:42.909Z,5.63
2022-08-17T18:53:35.240Z,5.40
2022-08-17T18:56:31.509Z,5.90
2022-08-17T18:59:28.983Z,5.80
2022-08-17T19:02:45.592Z,6.00
2022-08-17T19:05:37.553Z,6.10
2022-08-17T19:08:34.972Z,6.53
2022-08-17T19:11:27.167Z,5.77
2022-08-17T19:14:16.761Z,6.10
2022-08-17T19:17:10.552Z,6.23
2022-08-17T19:20:02.318Z,6.00
2022-08-17T19:23:06.620Z,6.17
2022-08-17T19:25:58.449Z,6.20
2022-08-17T19:28:48.906Z,6.03
2022-08-17T19:31:36.274Z,5.93
2022-08-17T19:34:33.417Z,6.53
2022-08-17T19:37:33.136Z,6.47
2022-08-17T19:40:51.570Z,6.50
2022-08-17T19:43:54.526Z,6.13
2022-08-17T19:46:49.936Z,6.70
2022-08-17T19:49:48.544Z,7.00
2022-08-17T19:52:57.437Z,6.80
2022-08-17T19:55:53.768Z,7.07
2022-08-17T19:59:01.242Z,7.43
2022-08-17T20:01:52.593Z,7.03
2022-08-17T20:04:43.802Z,7.00
2022-08-17T20:07:40.048Z,6.37
2022-08-17T20:10:40.909Z,7.20
2022-08-17T20:13:36.177Z,7.23
2022-08-17T20:16:24.929Z,6.93
2022-08-17T20:19:22.885Z,7.27
2022-08-17T20:22:13.183Z,7.80
2022-08-17T20:25:08.244Z,8.07
2022-08-17T20:28:00.653Z,8.07
2022-08-17T20:30:53.622Z,7.13
2022-08-17T20:33:41.437Z,8.20
2022-08-17T20:36:28.317Z,8.07
2022-08-17T20:39:33.606Z,7.77
2022-08-17T20:42:33.711Z,8.20
2022-08-17T20:46:12.852Z,7.50
2022-08-17T20:49:17.167Z,7.73
2022-08-17T20:52:08.872Z,8.40
2022-08-17T20:54:58.137Z,7.73
2022-08-17T20:57:49.372Z,8.83
2022-08-17T21:00:50.374Z,8.13
2022-08-17T21:03:51.791Z,8.20
2022-08-17T21:07:29.246Z,7.93
2022-08-17T21:10:19.590Z,8.60
2022-08-17T21:13:47.037Z,8.50
2022-08-17T21:16:43.010Z,8.50
2022-08-17T21:20:09.726Z,8.47
2022-08-17T21:23:16.369Z,8.93
2022-08-17T21:26:13.681Z,8.73
2022-08-17T21:29:30.064Z,8.83
2022-08-17T21:32:24.446Z,9.00
2022-08-17T21:35:31.241Z,8.73
2022-08-17T21:38:22.365Z,8.67
2022-08-17T21:41:20.828Z,9.33
2022-08-17T21:44:21.728Z,9.43
2022-08-17T21:47:20.092Z,8.50
2022-08-17T21:50:20.163Z,8.80
2022-08-17T21:53:08.865Z,9.30
2022-08-17T21:55:57.060Z,9.27
2022-08-17T21:58:48.533Z,10.03
2022-08-17T22:01:38.388Z,9.50
2022-08-17T22:04:31.564Z,9.97
2022-08-17T22:07:36.182Z,9.53
2022-08-17T22:10:32.802Z,9.10
2022-08-17T22:13:24.232Z,9.67
2022-08-17T22:16:27.966Z,9.90
2022-08-17T22:19:16.259Z,9.83
2022-08-17T22:22:05.181Z,10.63
2022-08-17T22:24:56.840Z,9.60
2022-08-17T22:27:55.898Z,9.27
2022-08-17T22:30:59.460Z,9.10
2022-08-17T22:33:49.093Z,9.80
2022-08-17T22:36:39.015Z,9.03
2022-08-17T22:39:42.141Z,9.40
2022-08-17T22:42:28.979Z,9.70
2022-08-17T22:45:15.748Z,9.67
2022-08-17T22:48:04.248Z,9.30
2022-08-17T22:50:51.390Z,9.73
2022-08-17T22:53:55.632Z,9.07
2022-08-17T22:57:07.436Z,8.43
2022-08-17T22:59:57.648Z,9.27
2022-08-17T23:03:10.562Z,9.30
2022-08-17T23:06:06.310Z,9.27
2022-08-17T23:08:54.990Z,9.67
2022-08-17T23:11:49.089Z,9.63
2022-08-17T23:14:41.273Z,9.30
2022-08-17T23:17:30.389Z,8.93
2022-08-17T23:20:20.404Z,9.50
2022-08-17T23:23:09.039Z,9.97
2022-08-17T23:25:55.712Z,9.47
2022-08-17T23:28:43.908Z,9.50
2022-08-17T23:31:34.673Z,8.67
2022-08-17T23:34:21.524Z,9.10
2022-08-17T23:37:11.296Z,9.43
2022-08-17T23:39:58.214Z,9.57
2022-08-17T23:42:47.292Z,9.10
2022-08-17T23:45:33.961Z,9.17
2022-08-17T23:48:36.345Z,9.33
2022-08-17T23:51:28.609Z,9.37
2022-08-17T23:54:22.816Z,9.23
2022-08-17T23:57:09.993Z,9.57
2022-08-17T23:59:56.910Z,9.60
